sensor_id;sensor_type;location;lat;lon;timestamp;pressure;altitude;pressure_sealevel;temperature;humidity
49194;BME280;35029;50.804;12.866;2023-05-12T00:00:12;97641.28;;;11.48;91.17
49194;BME280;35029;50.804;12.866;2023-05-12T00:02:39;97630.44;;;11.36;91.92
49194;BME280;35029;50.804;12.866;2023-05-12T00:05:05;97644.31;;;11.52;92.21
49194;BME280;35029;50.804;12.866;2023-05-12T00:07:31;97646.97;;;11.52;92.60
49194;BME280;35029;50.804;12.866;2023-05-12T00:09:57;97653.31;;;11.50;93.15
49194;BME280;35029;50.804;12.866;2023-05-12T00:12:22;97635.75;;;11.36;93.45
49194;BME280;35029;50.804;12.866;2023-05-12T00:14:48;97651.88;;;11.55;93.56
49194;BME280;35029;50.804;12.866;2023-05-12T00:17:13;97661.47;;;11.56;94.21
49194;BME280;35029;50.804;12.866;2023-05-12T00:19:39;97656.38;;;11.54;95.34
49194;BME280;35029;50.804;12.866;2023-05-12T00:22:11;97624.13;;;11.30;95.63
49194;BME280;35029;50.804;12.866;2023-05-12T00:24:36;97656.19;;;11.56;96.10
49194;BME280;35029;50.804;12.866;2023-05-12T00:27:03;97649.44;;;11.53;96.77
49194;BME280;35029;50.804;12.866;2023-05-12T00:29:28;97625.53;;;11.40;96.18
49194;BME280;35029;50.804;12.866;2023-05-12T00:31:54;97660.47;;;11.57;96.54
49194;BME280;35029;50.804;12.866;2023-05-12T00:34:20;97642.28;;;11.47;96.65
49194;BME280;35029;50.804;12.866;2023-05-12T00:36:45;97656.59;;;11.59;96.67
49194;BME280;35029;50.804;12.866;2023-05-12T00:39:11;97665.56;;;11.58;96.76
49194;BME280;35029;50.804;12.866;2023-05-12T00:41:36;97656.81;;;11.58;97.36
49194;BME280;35029;50.804;12.866;2023-05-12T00:44:02;97620.22;;;11.40;97.43
49194;BME280;35029;50.804;12.866;2023-05-12T00:46:27;97659.25;;;11.53;98.10
49194;BME280;35029;50.804;12.866;2023-05-12T00:48:53;97662.72;;;11.53;98.34
49194;BME280;35029;50.804;12.866;2023-05-12T00:51:19;97655.38;;;11.55;98.40
49194;BME280;35029;50.804;12.866;2023-05-12T00:53:46;97657.41;;;11.53;98.84
49194;BME280;35029;50.804;12.866;2023-05-12T00:56:13;97644.75;;;11.42;98.59
49194;BME280;35029;50.804;12.866;2023-05-12T00:58:41;97657.00;;;11.56;97.54
49194;BME280;35029;50.804;12.866;2023-05-12T01:01:06;97649.44;;;11.53;98.77
49194;BME280;35029;50.804;12.866;2023-05-12T01:03:32;97644.97;;;11.54;98.51
49194;BME280;35029;50.804;12.866;2023-05-12T01:06:25;97657.00;;;11.49;98.52
49194;BME280;35029;50.804;12.866;2023-05-12T01:08:54;97633.91;;;11.37;98.20
49194;BME280;35029;50.804;12.866;2023-05-12T01:11:20;97658.44;;;11.52;98.75
49194;BME280;35029;50.804;12.866;2023-05-12T01:13:47;97640.44;;;11.47;98.44
49194;BME280;35029;50.804;12.866;2023-05-12T01:16:14;97652.50;;;11.50;98.58
49194;BME280;35029;50.804;12.866;2023-05-12T01:18:42;97620.63;;;11.37;98.69
49194;BME280;35029;50.804;12.866;2023-05-12T01:21:15;97642.50;;;11.52;98.78
49194;BME280;35029;50.804;12.866;2023-05-12T01:23:45;97643.53;;;11.44;97.98
49194;BME280;35029;50.804;12.866;2023-05-12T01:26:13;97653.13;;;11.45;98.88
49194;BME280;35029;50.804;12.866;2023-05-12T01:28:39;97643.72;;;11.43;99.55
49194;BME280;35029;50.804;12.866;2023-05-12T01:31:07;97648.03;;;11.44;99.77
49194;BME280;35029;50.804;12.866;2023-05-12T01:33:35;97648.63;;;11.46;100.00
49194;BME280;35029;50.804;12.866;2023-05-12T01:36:01;97651.47;;;11.44;99.75
49194;BME280;35029;50.804;12.866;2023-05-12T01:38:27;97648.59;;;11.39;100.00
49194;BME280;35029;50.804;12.866;2023-05-12T01:40:53;97650.03;;;11.35;99.52
49194;BME280;35029;50.804;12.866;2023-05-12T01:43:19;97636.16;;;11.26;99.51
49194;BME280;35029;50.804;12.866;2023-05-12T01:45:44;97634.09;;;11.28;99.12
49194;BME280;35029;50.804;12.866;2023-05-12T01:48:10;97648.38;;;11.27;100.00
49194;BME280;35029;50.804;12.866;2023-05-12T01:50:36;97645.13;;;11.25;99.16
49194;BME280;35029;50.804;12.866;2023-05-12T01:53:05;97647.97;;;11.17;99.12
49194;BME280;35029;50.804;12.866;2023-05-12T01:55:31;97629.78;;;11.01;97.96
49194;BME280;35029;50.804;12.866;2023-05-12T01:57:57;97644.50;;;11.10;97.59
49194;BME280;35029;50.804;12.866;2023-05-12T02:00:22;97636.91;;;10.87;97.64
49194;BME280;35029;50.804;12.866;2023-05-12T02:02:50;97638.31;;;10.82;97.55
49194;BME280;35029;50.804;12.866;2023-05-12T02:05:16;97646.66;;;10.79;96.44
49194;BME280;35029;50.804;12.866;2023-05-12T02:07:44;97620.09;;;10.59;96.71
49194;BME280;35029;50.804;12.866;2023-05-12T02:10:11;97651.88;;;10.66;96.80
49194;BME280;35029;50.804;12.866;2023-05-12T02:12:36;97651.66;;;10.54;97.08
49194;BME280;35029;50.804;12.866;2023-05-12T02:15:03;97639.78;;;10.43;97.61
49194;BME280;35029;50.804;12.866;2023-05-12T02:17:30;97652.44;;;10.48;97.84
49194;BME280;35029;50.804;12.866;2023-05-12T02:19:58;97648.13;;;10.47;96.96
49194;BME280;35029;50.804;12.866;2023-05-12T02:22:24;97627.25;;;10.30;96.61
49194;BME280;35029;50.804;12.866;2023-05-12T02:24:50;97635.38;;;10.29;95.31
49194;BME280;35029;50.804;12.866;2023-05-12T02:27:16;97643.75;;;10.26;96.42
49194;BME280;35029;50.804;12.866;2023-05-12T02:29:41;97627.31;;;10.09;96.75
49194;BME280;35029;50.804;12.866;2023-05-12T02:32:08;97637.97;;;10.15;97.04
49194;BME280;35029;50.804;12.866;2023-05-12T02:34:34;97645.50;;;10.12;96.70
49194;BME280;35029;50.804;12.866;2023-05-12T02:36:59;97642.22;;;10.10;96.06
49194;BME280;35029;50.804;12.866;2023-05-12T02:39:25;97643.19;;;10.02;95.70
49194;BME280;35029;50.804;12.866;2023-05-12T02:41:50;97645.00;;;10.02;96.15
49194;BME280;35029;50.804;12.866;2023-05-12T02:44:16;97636.97;;;9.88;96.95
49194;BME280;35029;50.804;12.866;2023-05-12T02:46:42;97629.34;;;9.72;95.72
49194;BME280;35029;50.804;12.866;2023-05-12T02:49:08;97642.22;;;9.81;95.79
49194;BME280;35029;50.804;12.866;2023-05-12T02:51:33;97649.66;;;9.93;95.39
49194;BME280;35029;50.804;12.866;2023-05-12T02:53:59;97650.38;;;9.80;94.80
49194;BME280;35029;50.804;12.866;2023-05-12T02:56:24;97640.22;;;9.84;95.75
49194;BME280;35029;50.804;12.866;2023-05-12T02:58:51;97647.34;;;9.83;95.43
49194;BME280;35029;50.804;12.866;2023-05-12T03:01:17;97649.34;;;9.81;96.11
49194;BME280;35029;50.804;12.866;2023-05-12T03:03:43;97647.09;;;9.78;97.83
49194;BME280;35029;50.804;12.866;2023-05-12T03:06:09;97621.72;;;9.62;96.86
49194;BME280;35029;50.804;12.866;2023-05-12T03:08:35;97636.41;;;9.64;98.12
49194;BME280;35029;50.804;12.866;2023-05-12T03:11:01;97638.47;;;9.69;98.61
49194;BME280;35029;50.804;12.866;2023-05-12T03:13:27;97648.41;;;9.89;98.68
49194;BME280;35029;50.804;12.866;2023-05-12T03:15:52;97655.34;;;9.90;97.87
49194;BME280;35029;50.804;12.866;2023-05-12T03:18:18;97649.41;;;9.88;98.00
49194;BME280;35029;50.804;12.866;2023-05-12T03:20:44;97650.06;;;9.90;98.77
49194;BME280;35029;50.804;12.866;2023-05-12T03:23:09;97619.78;;;9.77;98.31
49194;BME280;35029;50.804;12.866;2023-05-12T03:25:35;97652.09;;;9.94;99.35
49194;BME280;35029;50.804;12.866;2023-05-12T03:28:01;97642.13;;;9.96;99.85
49194;BME280;35029;50.804;12.866;2023-05-12T03:30:28;97629.28;;;9.93;99.09
49194;BME280;35029;50.804;12.866;2023-05-12T03:32:53;97641.97;;;10.05;98.61
49194;BME280;35029;50.804;12.866;2023-05-12T03:35:19;97650.16;;;10.10;99.98
49194;BME280;35029;50.804;12.866;2023-05-12T03:37:45;97654.88;;;10.14;100.00
49194;BME280;35029;50.804;12.866;2023-05-12T03:40:11;97649.78;;;10.13;99.91
49194;BME280;35029;50.804;12.866;2023-05-12T03:42:42;97649.41;;;10.16;100.00
49194;BME280;35029;50.804;12.866;2023-05-12T03:45:08;97647.56;;;10.17;100.00
49194;BME280;35029;50.804;12.866;2023-05-12T03:47:34;97659.00;;;10.24;100.00
49194;BME280;35029;50.804;12.866;2023-05-12T03:50:00;97627.72;;;10.06;100.00
49194;BME280;35029;50.804;12.866;2023-05-12T03:52:26;97655.97;;;10.27;100.00
49194;BME280;35029;50.804;12.866;2023-05-12T03:54:51;97644.78;;;10.31;100.00
49194;BME280;35029;50.804;12.866;2023-05-12T03:57:16;97642.53;;;10.28;100.00
49194;BME280;35029;50.804;12.866;2023-05-12T03:59:42;97641.91;;;10.26;100.00
49194;BME280;35029;50.804;12.866;2023-05-12T04:02:08;97620.63;;;10.06;100.00
49194;BME280;35029;50.804;12.866;2023-05-12T04:04:37;97649.88;;;10.33;100.00
49194;BME280;35029;50.804;12.866;2023-05-12T04:07:03;97632.34;;;10.32;100.00
49194;BME280;35029;50.804;12.866;2023-05-12T04:09:30;97648.34;;;10.45;100.00
49194;BME280;35029;50.804;12.866;2023-05-12T04:11:56;97654.28;;;10.47;100.00
49194;BME280;35029;50.804;12.866;2023-05-12T04:14:22;97656.97;;;10.54;100.00
49194;BME280;35029;50.804;12.866;2023-05-12T04:16:47;97656.97;;;10.54;100.00
49194;BME280;35029;50.804;12.866;2023-05-12T04:19:13;97664.50;;;10.57;100.00
49194;BME280;35029;50.804;12.866;2023-05-12T04:21:39;97657.78;;;10.61;100.00
49194;BME280;35029;50.804;12.866;2023-05-12T04:24:04;97641.06;;;10.54;100.00
49194;BME280;35029;50.804;12.866;2023-05-12T04:26:33;97652.72;;;10.67;100.00
49194;BME280;35029;50.804;12.866;2023-05-12T04:28:59;97652.28;;;10.63;100.00
49194;BME280;35029;50.804;12.866;2023-05-12T04:31:24;97656.63;;;10.71;100.00
49194;BME280;35029;50.804;12.866;2023-05-12T04:33:51;97669.91;;;10.77;100.00
49194;BME280;35029;50.804;12.866;2023-05-12T04:36:16;97662.16;;;10.89;100.00
49194;BME280;35029;50.804;12.866;2023-05-12T04:38:42;97668.09;;;10.91;100.00
49194;BME280;35029;50.804;12.866;2023-05-12T04:41:08;97651.97;;;10.86;100.00
49194;BME280;35029;50.804;12.866;2023-05-12T04:43:33;97641.16;;;10.88;100.00
49194;BME280;35029;50.804;12.866;2023-05-12T04:46:00;97670.63;;;11.13;100.00
49194;BME280;35029;50.804;12.866;2023-05-12T04:48:27;97673.88;;;11.15;100.00
49194;BME280;35029;50.804;12.866;2023-05-12T04:50:53;97683.50;;;11.23;100.00
49194;BME280;35029;50.804;12.866;2023-05-12T04:53:19;97653.88;;;11.19;100.00
49194;BME280;35029;50.804;12.866;2023-05-12T04:55:46;97675.97;;;11.40;100.00
49194;BME280;35029;50.804;12.866;2023-05-12T04:58:12;97682.13;;;11.47;100.00
49194;BME280;35029;50.804;12.866;2023-05-12T05:00:41;97655.56;;;11.33;100.00
49194;BME280;35029;50.804;12.866;2023-05-12T05:03:07;97673.13;;;11.48;100.00
49194;BME280;35029;50.804;12.866;2023-05-12T05:05:33;97680.06;;;11.62;100.00
49194;BME280;35029;50.804;12.866;2023-05-12T05:07:58;97646.97;;;11.52;100.00
49194;BME280;35029;50.804;12.866;2023-05-12T05:10:24;97677.63;;;11.74;100.00
49194;BME280;35029;50.804;12.866;2023-05-12T05:12:50;97678.22;;;11.76;100.00
49194;BME280;35029;50.804;12.866;2023-05-12T05:15:15;97648.84;;;11.64;100.00
49194;BME280;35029;50.804;12.866;2023-05-12T05:17:41;97687.03;;;11.90;100.00
49194;BME280;35029;50.804;12.866;2023-05-12T05:20:08;97671.91;;;11.84;100.00
49194;BME280;35029;50.804;12.866;2023-05-12T05:22:35;97686.84;;;11.92;99.97
49194;BME280;35029;50.804;12.866;2023-05-12T05:25:04;97666.59;;;11.91;100.00
49194;BME280;35029;50.804;12.866;2023-05-12T05:27:30;97673.53;;;12.05;100.00
49194;BME280;35029;50.804;12.866;2023-05-12T05:29:56;97699.31;;;12.11;98.88
49194;BME280;35029;50.804;12.866;2023-05-12T05:32:22;97684.59;;;12.09;99.63
49194;BME280;35029;50.804;12.866;2023-05-12T05:34:48;97690.69;;;12.16;99.42
49194;BME280;35029;50.804;12.866;2023-05-12T05:37:13;97696.63;;;12.18;99.19
49194;BME280;35029;50.804;12.866;2023-05-12T05:39:39;97694.97;;;12.30;99.14
49194;BME280;35029;50.804;12.866;2023-05-12T05:42:05;97671.06;;;12.30;97.65
49194;BME280;35029;50.804;12.866;2023-05-12T05:44:31;97692.28;;;12.44;96.76
49194;BME280;35029;50.804;12.866;2023-05-12T05:46:56;97685.31;;;12.49;96.81
49194;BME280;35029;50.804;12.866;2023-05-12T05:49:24;97692.84;;;12.59;95.91
49194;BME280;35029;50.804;12.866;2023-05-12T05:51:50;97696.53;;;12.65;94.78
49194;BME280;35029;50.804;12.866;2023-05-12T05:54:16;97689.75;;;12.69;96.16
49194;BME280;35029;50.804;12.866;2023-05-12T05:56:42;97702.63;;;12.79;95.37
49194;BME280;35029;50.804;12.866;2023-05-12T05:59:07;97692.59;;;12.81;94.64
49194;BME280;35029;50.804;12.866;2023-05-12T06:01:34;97706.66;;;12.88;92.89
49194;BME280;35029;50.804;12.866;2023-05-12T06:04:00;97701.34;;;12.88;89.69
49194;BME280;35029;50.804;12.866;2023-05-12T06:06:27;97706.84;;;12.93;89.02
49194;BME280;35029;50.804;12.866;2023-05-12T06:08:53;97696.19;;;13.00;88.63
49194;BME280;35029;50.804;12.866;2023-05-12T06:11:20;97688.41;;;12.98;87.21
49194;BME280;35029;50.804;12.866;2023-05-12T06:13:45;97691.03;;;13.12;87.75
49194;BME280;35029;50.804;12.866;2023-05-12T06:16:11;97703.47;;;13.18;88.66
49194;BME280;35029;50.804;12.866;2023-05-12T06:18:37;97702.00;;;13.22;85.33
49194;BME280;35029;50.804;12.866;2023-05-12T06:21:03;97702.00;;;13.22;82.28
49194;BME280;35029;50.804;12.866;2023-05-12T06:23:29;97702.59;;;13.31;82.52
49194;BME280;35029;50.804;12.866;2023-05-12T06:25:54;97706.81;;;13.45;81.94
49194;BME280;35029;50.804;12.866;2023-05-12T06:28:20;97650.44;;;13.16;82.06
49194;BME280;35029;50.804;12.866;2023-05-12T06:30:46;97712.22;;;13.64;82.85
49194;BME280;35029;50.804;12.866;2023-05-12T06:33:11;97719.16;;;13.72;83.20
49194;BME280;35029;50.804;12.866;2023-05-12T06:35:37;97707.66;;;13.71;81.67
49194;BME280;35029;50.804;12.866;2023-05-12T06:38:04;97712.94;;;13.78;81.08
49194;BME280;35029;50.804;12.866;2023-05-12T06:40:31;97710.91;;;13.80;81.16
49194;BME280;35029;50.804;12.866;2023-05-12T06:42:58;97715.34;;;13.86;81.81
49194;BME280;35029;50.804;12.866;2023-05-12T06:45:25;97713.66;;;13.92;82.42
49194;BME280;35029;50.804;12.866;2023-05-12T06:47:53;97718.13;;;13.98;81.45
49194;BME280;35029;50.804;12.866;2023-05-12T06:50:23;97724.88;;;14.00;81.16
49194;BME280;35029;50.804;12.866;2023-05-12T06:52:52;97715.56;;;14.10;81.54
49194;BME280;35029;50.804;12.866;2023-05-12T06:55:18;97717.34;;;14.16;80.32
49194;BME280;35029;50.804;12.866;2023-05-12T06:57:45;97714.56;;;14.29;81.12
49194;BME280;35029;50.804;12.866;2023-05-12T07:00:17;97716.88;;;14.44;80.57
49194;BME280;35029;50.804;12.866;2023-05-12T07:02:43;97718.00;;;14.55;79.22
49194;BME280;35029;50.804;12.866;2023-05-12T07:05:10;97722.44;;;14.61;78.28
49194;BME280;35029;50.804;12.866;2023-05-12T07:07:39;97725.31;;;14.60;75.02
49194;BME280;35029;50.804;12.866;2023-05-12T07:10:07;97699.69;;;14.59;75.60
49194;BME280;35029;50.804;12.866;2023-05-12T07:12:33;97718.78;;;14.81;75.21
49194;BME280;35029;50.804;12.866;2023-05-12T07:14:58;97715.94;;;14.94;74.99
49194;BME280;35029;50.804;12.866;2023-05-12T07:17:24;97711.03;;;15.10;74.71
49194;BME280;35029;50.804;12.866;2023-05-12T07:19:50;97716.22;;;15.23;74.28
49194;BME280;35029;50.804;12.866;2023-05-12T07:22:16;97710.53;;;15.31;71.47
49194;BME280;35029;50.804;12.866;2023-05-12T07:24:41;97711.88;;;15.41;72.33
49194;BME280;35029;50.804;12.866;2023-05-12T07:27:07;97713.53;;;15.53;71.15
49194;BME280;35029;50.804;12.866;2023-05-12T07:29:33;97704.81;;;15.58;69.65
49194;BME280;35029;50.804;12.866;2023-05-12T07:31:58;97708.31;;;15.70;70.33
49194;BME280;35029;50.804;12.866;2023-05-12T07:34:24;97690.88;;;15.56;66.28
49194;BME280;35029;50.804;12.866;2023-05-12T07:36:50;97712.72;;;15.53;64.85
49194;BME280;35029;50.804;12.866;2023-05-12T07:39:16;97700.53;;;15.57;65.24
49194;BME280;35029;50.804;12.866;2023-05-12T07:41:48;97719.75;;;15.78;67.25
49194;BME280;35029;50.804;12.866;2023-05-12T07:44:14;97710.00;;;15.83;65.54
49194;BME280;35029;50.804;12.866;2023-05-12T07:46:41;97710.47;;;15.92;63.40
49194;BME280;35029;50.804;12.866;2023-05-12T07:49:06;97711.78;;;16.01;64.79
49194;BME280;35029;50.804;12.866;2023-05-12T07:51:32;97716.44;;;16.18;65.10
49194;BME280;35029;50.804;12.866;2023-05-12T07:53:57;97709.34;;;16.35;65.69
49194;BME280;35029;50.804;12.866;2023-05-12T07:56:23;97681.56;;;16.13;64.61
49194;BME280;35029;50.804;12.866;2023-05-12T07:58:49;97704.81;;;16.48;65.73
49194;BME280;35029;50.804;12.866;2023-05-12T08:01:15;97698.66;;;16.47;64.14
49194;BME280;35029;50.804;12.866;2023-05-12T08:03:41;97715.50;;;16.60;64.67
49194;BME280;35029;50.804;12.866;2023-05-12T08:06:06;97710.63;;;16.56;63.04
49194;BME280;35029;50.804;12.866;2023-05-12T08:08:32;97715.00;;;16.75;64.42
49194;BME280;35029;50.804;12.866;2023-05-12T08:10:58;97709.84;;;16.85;62.94
49194;BME280;35029;50.804;12.866;2023-05-12T08:13:24;97681.59;;;16.89;61.33
49194;BME280;35029;50.804;12.866;2023-05-12T08:15:50;97707.00;;;17.15;61.26
49194;BME280;35029;50.804;12.866;2023-05-12T08:18:16;97715.84;;;17.45;60.95
49194;BME280;35029;50.804;12.866;2023-05-12T08:20:42;97711.47;;;17.38;59.82
49194;BME280;35029;50.804;12.866;2023-05-12T08:23:08;97711.97;;;17.52;59.41
49194;BME280;35029;50.804;12.866;2023-05-12T08:25:34;97701.91;;;17.60;58.06
49194;BME280;35029;50.804;12.866;2023-05-12T08:28:01;97710.25;;;17.92;58.22
49194;BME280;35029;50.804;12.866;2023-05-12T08:30:28;97709.19;;;18.10;58.80
49194;BME280;35029;50.804;12.866;2023-05-12T08:32:54;97702.91;;;18.21;56.37
49194;BME280;35029;50.804;12.866;2023-05-12T08:35:22;97716.16;;;17.94;55.31
49194;BME280;35029;50.804;12.866;2023-05-12T08:37:48;97710.25;;;18.26;54.31
49194;BME280;35029;50.804;12.866;2023-05-12T08:40:19;97712.72;;;18.50;52.86
49194;BME280;35029;50.804;12.866;2023-05-12T08:45:14;97701.28;;;18.59;52.08
49194;BME280;35029;50.804;12.866;2023-05-12T08:47:40;97710.19;;;18.82;50.64
49194;BME280;35029;50.804;12.866;2023-05-12T08:50:08;97719.91;;;18.27;52.11
49194;BME280;35029;50.804;12.866;2023-05-12T08:52:35;97703.22;;;17.74;51.52
49194;BME280;35029;50.804;12.866;2023-05-12T08:55:01;97671.94;;;17.46;51.33
49194;BME280;35029;50.804;12.866;2023-05-12T08:57:28;97703.88;;;17.64;51.25
49194;BME280;35029;50.804;12.866;2023-05-12T08:59:56;97703.63;;;17.83;52.27
49194;BME280;35029;50.804;12.866;2023-05-12T09:02:23;97699.75;;;18.24;52.34
49194;BME280;35029;50.804;12.866;2023-05-12T09:04:49;97685.31;;;18.48;51.77
49194;BME280;35029;50.804;12.866;2023-05-12T09:07:17;97707.06;;;19.13;49.39
49194;BME280;35029;50.804;12.866;2023-05-12T09:09:44;97705.50;;;19.71;49.35
49194;BME280;35029;50.804;12.866;2023-05-12T09:12:14;97711.78;;;20.15;50.38
49194;BME280;35029;50.804;12.866;2023-05-12T09:14:41;97699.25;;;19.61;49.93
49194;BME280;35029;50.804;12.866;2023-05-12T09:17:08;97696.97;;;19.20;48.12
49194;BME280;35029;50.804;12.866;2023-05-12T09:19:34;97698.78;;;18.92;49.66
49194;BME280;35029;50.804;12.866;2023-05-12T09:22:00;97706.38;;;18.78;52.30
49194;BME280;35029;50.804;12.866;2023-05-12T09:24:36;97709.91;;;18.62;50.87
49194;BME280;35029;50.804;12.866;2023-05-12T09:27:02;97681.69;;;18.81;45.41
49194;BME280;35029;50.804;12.866;2023-05-12T09:29:29;97703.31;;;19.68;45.88
49194;BME280;35029;50.804;12.866;2023-05-12T09:31:56;97682.94;;;20.05;43.03
49194;BME280;35029;50.804;12.866;2023-05-12T09:34:33;97713.09;;;20.50;41.88
49194;BME280;35029;50.804;12.866;2023-05-12T09:37:03;97701.34;;;20.66;40.61
49194;BME280;35029;50.804;12.866;2023-05-12T09:39:29;97689.84;;;20.76;39.57
49194;BME280;35029;50.804;12.866;2023-05-12T09:41:55;97704.06;;;20.23;38.62
49194;BME280;35029;50.804;12.866;2023-05-12T09:44:22;97709.13;;;19.82;40.66
49194;BME280;35029;50.804;12.866;2023-05-12T09:46:48;97703.09;;;20.02;41.43
49194;BME280;35029;50.804;12.866;2023-05-12T09:49:21;97696.97;;;20.50;42.64
49194;BME280;35029;50.804;12.866;2023-05-12T09:51:54;97692.75;;;20.69;40.33
49194;BME280;35029;50.804;12.866;2023-05-12T09:54:30;97701.00;;;21.05;37.99
49194;BME280;35029;50.804;12.866;2023-05-12T09:56:58;97700.06;;;21.53;39.50
49194;BME280;35029;50.804;12.866;2023-05-12T09:59:31;97702.78;;;21.68;39.52
49194;BME280;35029;50.804;12.866;2023-05-12T10:01:59;97706.31;;;21.79;38.36
49194;BME280;35029;50.804;12.866;2023-05-12T10:04:26;97698.38;;;21.31;37.47
49194;BME280;35029;50.804;12.866;2023-05-12T10:06:53;97699.59;;;20.92;39.27
49194;BME280;35029;50.804;12.866;2023-05-12T10:11:46;97713.56;;;20.36;42.76
49194;BME280;35029;50.804;12.866;2023-05-12T10:14:12;97712.44;;;19.95;37.45
49194;BME280;35029;50.804;12.866;2023-05-12T10:16:39;97716.78;;;19.96;41.41
49194;BME280;35029;50.804;12.866;2023-05-12T10:19:06;97715.97;;;19.95;41.32
49194;BME280;35029;50.804;12.866;2023-05-12T10:21:33;97714.56;;;19.87;41.99
49194;BME280;35029;50.804;12.866;2023-05-12T10:24:01;97704.56;;;19.83;44.16
49194;BME280;35029;50.804;12.866;2023-05-12T10:26:28;97711.06;;;19.87;45.40
49194;BME280;35029;50.804;12.866;2023-05-12T10:28:55;97710.50;;;19.85;43.76
49194;BME280;35029;50.804;12.866;2023-05-12T10:31:22;97713.50;;;19.88;42.92
49194;BME280;35029;50.804;12.866;2023-05-12T10:33:59;97702.16;;;19.86;43.34
49194;BME280;35029;50.804;12.866;2023-05-12T10:36:25;97687.38;;;19.89;43.94
49194;BME280;35029;50.804;12.866;2023-05-12T10:38:51;97705.19;;;20.33;42.93
49194;BME280;35029;50.804;12.866;2023-05-12T10:41:28;97718.72;;;20.43;41.38
49194;BME280;35029;50.804;12.866;2023-05-12T10:43:53;97720.22;;;20.23;40.63
49194;BME280;35029;50.804;12.866;2023-05-12T10:46:20;97696.91;;;20.02;41.56
49194;BME280;35029;50.804;12.866;2023-05-12T10:51:19;97719.47;;;19.68;44.03
49194;BME280;35029;50.804;12.866;2023-05-12T10:53:50;97714.34;;;19.67;44.40
49194;BME280;35029;50.804;12.866;2023-05-12T10:56:24;97715.72;;;19.69;44.81
49194;BME280;35029;50.804;12.866;2023-05-12T10:59:20;97707.31;;;19.88;45.03
49194;BME280;35029;50.804;12.866;2023-05-12T11:02:12;97712.16;;;20.23;43.95
49194;BME280;35029;50.804;12.866;2023-05-12T11:07:09;97717.97;;;21.06;45.31
49194;BME280;35029;50.804;12.866;2023-05-12T11:09:36;97720.03;;;21.57;42.25
49194;BME280;35029;50.804;12.866;2023-05-12T11:12:05;97716.53;;;21.72;40.12
49194;BME280;35029;50.804;12.866;2023-05-12T11:14:30;97719.22;;;21.56;41.93
49194;BME280;35029;50.804;12.866;2023-05-12T11:16:56;97716.22;;;21.48;40.84
49194;BME280;35029;50.804;12.866;2023-05-12T11:19:22;97717.78;;;21.23;42.33
49194;BME280;35029;50.804;12.866;2023-05-12T11:21:47;97696.97;;;21.08;42.92
49194;BME280;35029;50.804;12.866;2023-05-12T11:24:13;97719.41;;;21.44;42.75
49194;BME280;35029;50.804;12.866;2023-05-12T11:26:41;97722.47;;;21.94;40.46
49194;BME280;35029;50.804;12.866;2023-05-12T11:29:06;97717.63;;;22.43;39.92
49194;BME280;35029;50.804;12.866;2023-05-12T11:31:32;97712.69;;;22.60;37.40
49194;BME280;35029;50.804;12.866;2023-05-12T11:34:05;97720.00;;;22.55;38.25
49194;BME280;35029;50.804;12.866;2023-05-12T11:36:39;97724.09;;;22.26;35.24
49194;BME280;35029;50.804;12.866;2023-05-12T11:39:04;97723.81;;;21.87;37.13
49194;BME280;35029;50.804;12.866;2023-05-12T11:41:31;97727.34;;;21.82;38.13
49194;BME280;35029;50.804;12.866;2023-05-12T11:43:57;97726.78;;;21.65;37.72
49194;BME280;35029;50.804;12.866;2023-05-12T11:46:29;97730.28;;;21.70;38.19
49194;BME280;35029;50.804;12.866;2023-05-12T11:48:58;97731.38;;;21.74;39.67
49194;BME280;35029;50.804;12.866;2023-05-12T11:51:25;97725.16;;;22.10;37.58
49194;BME280;35029;50.804;12.866;2023-05-12T11:53:54;97701.13;;;22.29;38.03
49194;BME280;35029;50.804;12.866;2023-05-12T11:56:21;97730.03;;;22.18;39.66
49194;BME280;35029;50.804;12.866;2023-05-12T11:58:55;97731.91;;;22.33;37.55
49194;BME280;35029;50.804;12.866;2023-05-12T12:01:22;97712.75;;;22.14;38.06
49194;BME280;35029;50.804;12.866;2023-05-12T12:03:50;97736.78;;;22.21;38.29
49194;BME280;35029;50.804;12.866;2023-05-12T12:06:17;97730.84;;;22.08;38.64
49194;BME280;35029;50.804;12.866;2023-05-12T12:13:47;97742.72;;;22.43;41.44
49194;BME280;35029;50.804;12.866;2023-05-12T12:16:14;97730.84;;;22.19;38.75
49194;BME280;35029;50.804;12.866;2023-05-12T12:18:39;97744.88;;;22.00;40.42
49194;BME280;35029;50.804;12.866;2023-05-12T12:21:05;97731.13;;;22.22;39.66
49194;BME280;35029;50.804;12.866;2023-05-12T12:23:31;97745.63;;;22.78;39.43
49194;BME280;35029;50.804;12.866;2023-05-12T12:25:57;97743.66;;;23.04;40.52
49194;BME280;35029;50.804;12.866;2023-05-12T12:28:22;97747.56;;;22.62;39.59
49194;BME280;35029;50.804;12.866;2023-05-12T12:30:48;97747.56;;;22.26;39.25
49194;BME280;35029;50.804;12.866;2023-05-12T12:33:13;97750.56;;;21.83;38.96
49194;BME280;35029;50.804;12.866;2023-05-12T12:35:39;97756.91;;;21.41;40.75
49194;BME280;35029;50.804;12.866;2023-05-12T12:38:06;97730.88;;;20.99;40.57
49194;BME280;35029;50.804;12.866;2023-05-12T12:40:31;97755.34;;;20.87;39.43
49194;BME280;35029;50.804;12.866;2023-05-12T12:42:57;97765.25;;;20.76;38.59
49194;BME280;35029;50.804;12.866;2023-05-12T12:45:22;97765.72;;;20.68;40.05
49194;BME280;35029;50.804;12.866;2023-05-12T12:47:50;97764.59;;;20.58;40.42
49194;BME280;35029;50.804;12.866;2023-05-12T12:50:17;97762.31;;;20.40;37.76
49194;BME280;35029;50.804;12.866;2023-05-12T12:52:43;97729.63;;;20.21;40.28
49194;BME280;35029;50.804;12.866;2023-05-12T12:55:09;97765.06;;;20.50;40.43
49194;BME280;35029;50.804;12.866;2023-05-12T12:57:34;97765.91;;;20.56;41.18
49194;BME280;35029;50.804;12.866;2023-05-12T13:00:01;97761.03;;;20.53;40.18
49194;BME280;35029;50.804;12.866;2023-05-12T13:02:27;97768.06;;;20.54;40.60